createdAt,value
2019-03-20T00:01:09.257Z,2.95
2019-03-20T00:03:37.295Z,1.65
2019-03-20T00:06:05.297Z,1.75
2019-03-20T00:08:33.366Z,1.60
2019-03-20T00:11:01.385Z,2.83
2019-03-20T00:13:29.422Z,1.80
2019-03-20T00:15:57.438Z,2.22
2019-03-20T00:18:25.475Z,2.08
2019-03-20T00:20:53.494Z,2.12
2019-03-20T00:23:21.545Z,2.20
2019-03-20T00:25:49.635Z,2.75
2019-03-20T00:28:17.699Z,1.75
2019-03-20T00:30:45.737Z,1.98
2019-03-20T00:33:13.812Z,1.77
2019-03-20T00:35:41.867Z,1.80
2019-03-20T00:38:09.876Z,2.37
2019-03-20T00:40:37.964Z,1.75
2019-03-20T00:43:06.651Z,2.10
2019-03-20T00:45:34.871Z,1.98
2019-03-20T00:48:03.049Z,2.33
2019-03-20T00:50:31.107Z,1.90
2019-03-20T00:52:59.128Z,1.72
2019-03-20T00:55:27.204Z,2.02
2019-03-20T00:57:55.368Z,2.00
2019-03-20T01:00:23.875Z,2.80
2019-03-20T01:02:51.906Z,2.00
2019-03-20T01:05:21.591Z,2.20
2019-03-20T01:07:49.596Z,2.25
2019-03-20T01:10:21.937Z,2.40
2019-03-20T01:12:49.958Z,1.85
2019-03-20T01:15:18.098Z,2.10
2019-03-20T01:17:46.123Z,2.35
2019-03-20T01:20:20.738Z,2.08
2019-03-20T01:22:48.767Z,1.50
2019-03-20T01:25:17.136Z,2.42
2019-03-20T01:27:45.175Z,1.85
2019-03-20T01:30:33.333Z,2.50
2019-03-20T01:33:01.934Z,1.62
2019-03-20T01:35:30.099Z,2.30
2019-03-20T01:37:58.147Z,1.72
2019-03-20T01:40:26.147Z,1.87
2019-03-20T01:42:54.179Z,1.87
2019-03-20T01:45:22.199Z,1.98
2019-03-20T01:47:50.271Z,1.57
2019-03-20T01:50:18.373Z,1.70
2019-03-20T01:52:46.392Z,2.30
2019-03-20T01:55:14.399Z,1.60
2019-03-20T01:57:42.448Z,1.60
2019-03-20T02:00:10.618Z,1.90
2019-03-20T02:02:38.650Z,2.08
2019-03-20T02:05:07.030Z,1.70
2019-03-20T02:07:35.051Z,1.77
2019-03-20T02:10:03.054Z,2.47
2019-03-20T02:12:31.087Z,1.80
2019-03-20T02:14:59.094Z,2.00
2019-03-20T02:17:27.134Z,2.22
2019-03-20T02:19:55.262Z,1.40
2019-03-20T02:22:23.312Z,2.02
2019-03-20T02:24:51.397Z,1.95
2019-03-20T02:27:19.398Z,1.98
2019-03-20T02:29:47.552Z,2.17
2019-03-20T02:32:15.726Z,1.60
2019-03-20T02:34:43.798Z,2.00
2019-03-20T02:37:11.856Z,1.42
2019-03-20T02:39:39.944Z,1.75
2019-03-20T02:42:07.999Z,1.95
2019-03-20T02:44:36.090Z,1.50
2019-03-20T02:47:04.094Z,1.60
2019-03-20T02:49:32.140Z,1.82
2019-03-20T02:52:00.156Z,2.00
2019-03-20T02:54:28.173Z,1.77
2019-03-20T02:56:56.179Z,1.70
2019-03-20T02:59:24.208Z,1.62
2019-03-20T03:01:52.219Z,1.75
2019-03-20T03:04:20.245Z,1.90
2019-03-20T03:06:48.275Z,1.67
2019-03-20T03:09:16.425Z,1.65
2019-03-20T03:11:44.432Z,1.60
2019-03-20T03:14:12.475Z,1.70
2019-03-20T03:16:40.575Z,1.87
2019-03-20T03:19:08.818Z,2.30
2019-03-20T03:21:36.835Z,2.15
2019-03-20T03:24:04.866Z,1.60
2019-03-20T03:26:32.885Z,1.40
2019-03-20T03:29:00.887Z,2.15
2019-03-20T03:31:29.028Z,2.77
2019-03-20T03:33:57.044Z,1.60
2019-03-20T03:36:25.240Z,2.10
2019-03-20T03:38:53.303Z,1.55
2019-03-20T03:41:21.330Z,1.87
2019-03-20T03:43:49.348Z,1.50
2019-03-20T03:46:17.375Z,1.60
2019-03-20T03:48:45.476Z,1.55
2019-03-20T03:51:13.510Z,2.10
2019-03-20T03:53:41.652Z,1.60
2019-03-20T03:56:09.691Z,1.85
2019-03-20T03:58:37.826Z,1.60
2019-03-20T04:01:05.905Z,1.40
2019-03-20T04:03:35.541Z,1.50
2019-03-20T04:06:03.548Z,1.67
2019-03-20T04:08:31.579Z,1.62
2019-03-20T04:10:59.601Z,1.70
2019-03-20T04:13:27.664Z,1.52
2019-03-20T04:15:55.913Z,1.57
2019-03-20T04:18:23.997Z,2.72
2019-03-20T04:20:52.032Z,1.72
2019-03-20T04:23:20.064Z,2.10
2019-03-20T04:25:48.096Z,1.60
2019-03-20T04:28:16.171Z,1.57
2019-03-20T04:30:44.221Z,1.65
2019-03-20T04:33:12.529Z,1.60
2019-03-20T04:35:40.664Z,2.02
2019-03-20T04:38:08.747Z,1.90
2019-03-20T04:40:36.807Z,1.40
2019-03-20T04:43:04.825Z,2.00
2019-03-20T04:45:32.852Z,1.40
2019-03-20T04:48:01.045Z,1.50
2019-03-20T04:50:29.045Z,1.77
2019-03-20T04:52:57.155Z,1.70
2019-03-20T04:55:25.170Z,1.50
2019-03-20T04:57:53.271Z,1.65
2019-03-20T05:00:23.079Z,2.15
2019-03-20T05:02:51.094Z,1.70
2019-03-20T05:05:19.129Z,1.85
2019-03-20T05:07:47.144Z,1.50
2019-03-20T05:10:18.300Z,2.33
2019-03-20T05:12:46.318Z,1.75
2019-03-20T05:15:14.416Z,1.70
2019-03-20T05:17:42.424Z,1.50
2019-03-20T05:20:17.087Z,1.87
2019-03-20T05:22:45.113Z,1.50
2019-03-20T05:25:13.178Z,1.90
2019-03-20T05:27:41.176Z,1.87
2019-03-20T05:30:10.837Z,1.60
2019-03-20T05:32:38.856Z,2.00
2019-03-20T05:35:07.355Z,1.75
2019-03-20T05:37:35.421Z,2.22
2019-03-20T05:40:04.614Z,1.70
2019-03-20T05:42:32.688Z,1.62
2019-03-20T05:45:00.721Z,1.60
2019-03-20T05:47:28.823Z,1.60
2019-03-20T05:49:56.928Z,1.70
2019-03-20T05:52:24.987Z,1.60
2019-03-20T05:54:52.992Z,1.72
2019-03-20T05:57:21.206Z,1.82
2019-03-20T05:59:49.220Z,1.70
2019-03-20T06:02:17.254Z,2.35
2019-03-20T06:04:45.275Z,1.50
2019-03-20T06:07:21.012Z,1.70
2019-03-20T06:09:43.042Z,1.67
2019-03-20T06:12:11.072Z,1.62
2019-03-20T06:14:39.088Z,1.70
2019-03-20T06:17:07.132Z,1.45
2019-03-20T06:19:35.236Z,1.67
2019-03-20T06:22:03.276Z,1.42
2019-03-20T06:24:31.406Z,1.60
2019-03-20T06:26:59.439Z,1.75
2019-03-20T06:29:27.449Z,1.80
2019-03-20T06:31:55.475Z,1.72
2019-03-20T06:34:23.500Z,1.60
2019-03-20T06:36:51.523Z,2.33
2019-03-20T06:39:19.527Z,1.80
2019-03-20T06:41:47.615Z,1.47
2019-03-20T06:44:15.636Z,1.62
2019-03-20T06:46:43.679Z,1.52
2019-03-20T06:49:11.731Z,1.50
2019-03-20T06:51:39.738Z,1.70
2019-03-20T06:54:07.787Z,1.50
2019-03-20T06:56:35.887Z,1.98
2019-03-20T06:59:08.513Z,1.50
2019-03-20T07:01:36.607Z,1.50
2019-03-20T07:04:09.203Z,1.80
2019-03-20T07:06:38.855Z,1.47
2019-03-20T07:09:14.483Z,1.75
2019-03-20T07:11:42.566Z,1.62
2019-03-20T07:14:10.610Z,1.80
2019-03-20T07:16:38.619Z,2.15
2019-03-20T07:19:06.646Z,1.82
2019-03-20T07:21:34.655Z,1.60
2019-03-20T07:24:02.672Z,1.50
2019-03-20T07:26:30.681Z,1.60
2019-03-20T07:28:58.720Z,1.40
2019-03-20T07:31:26.736Z,1.62
2019-03-20T07:33:54.763Z,1.62
2019-03-20T07:36:23.047Z,2.08
2019-03-20T07:38:51.069Z,1.67
2019-03-20T07:41:19.161Z,3.40
2019-03-20T07:43:47.296Z,1.52
2019-03-20T07:46:15.465Z,1.65
2019-03-20T07:48:43.515Z,1.50
2019-03-20T07:51:11.590Z,1.92
2019-03-20T07:53:39.917Z,1.50
2019-03-20T07:56:07.944Z,1.65
2019-03-20T07:58:35.971Z,1.50
2019-03-20T08:01:04.065Z,1.52
2019-03-20T08:03:32.152Z,1.50
2019-03-20T08:06:00.172Z,1.70
2019-03-20T08:08:28.391Z,2.08
2019-03-20T08:10:56.410Z,1.60
2019-03-20T08:13:24.420Z,2.02
2019-03-20T08:15:52.512Z,1.67
2019-03-20T08:18:20.591Z,2.60
2019-03-20T08:20:48.681Z,2.52
2019-03-20T08:23:16.692Z,1.70
2019-03-20T08:25:44.807Z,1.50
2019-03-20T08:28:12.816Z,2.02
2019-03-20T08:30:40.855Z,2.05
2019-03-20T08:33:08.888Z,2.10
2019-03-20T08:35:36.906Z,2.85
2019-03-20T08:38:04.949Z,2.92
2019-03-20T08:40:33.027Z,2.00
2019-03-20T08:43:01.059Z,2.20
2019-03-20T08:45:29.104Z,1.50
2019-03-20T08:47:57.167Z,2.60
2019-03-20T08:50:25.618Z,3.77
2019-03-20T08:52:53.653Z,1.77
2019-03-20T08:55:21.722Z,2.92
2019-03-20T08:57:49.756Z,3.72
2019-03-20T09:00:18.393Z,2.47
2019-03-20T09:02:46.546Z,2.10
2019-03-20T09:05:14.774Z,2.25
2019-03-20T09:07:47.217Z,2.58
2019-03-20T09:10:13.785Z,1.87
2019-03-20T09:12:41.834Z,1.98
2019-03-20T09:15:11.007Z,1.85
2019-03-20T09:17:39.030Z,2.20
2019-03-20T09:20:11.339Z,1.77
2019-03-20T09:22:39.431Z,12.50
2019-03-20T09:25:08.872Z,10.05
2019-03-20T09:27:36.903Z,7.72
2019-03-20T09:30:09.578Z,6.58
2019-03-20T09:32:37.592Z,4.20
2019-03-20T09:35:07.148Z,5.17
2019-03-20T09:37:35.218Z,4.67
2019-03-20T09:40:04.545Z,4.35
2019-03-20T09:42:32.634Z,4.37
2019-03-20T09:45:00.668Z,5.70
2019-03-20T09:47:28.699Z,4.75
2019-03-20T09:49:56.818Z,6.17
2019-03-20T09:52:24.854Z,5.70
2019-03-20T09:54:52.886Z,26.97
2019-03-20T09:57:20.895Z,20.70
2019-03-20T09:59:50.590Z,28.55
2019-03-20T10:02:18.663Z,17.92
2019-03-20T10:04:46.751Z,18.52
2019-03-20T10:07:14.771Z,13.45
2019-03-20T10:09:42.808Z,16.93
2019-03-20T10:12:10.825Z,15.35
2019-03-20T10:14:38.855Z,16.77
2019-03-20T10:17:06.880Z,15.55
2019-03-20T10:19:34.913Z,19.87
2019-03-20T10:22:02.919Z,11.33
2019-03-20T10:24:30.931Z,12.90
2019-03-20T10:26:58.978Z,14.07
2019-03-20T10:29:26.995Z,13.48
2019-03-20T10:31:58.591Z,14.45
2019-03-20T10:34:26.615Z,12.58
2019-03-20T10:36:54.669Z,12.85
2019-03-20T10:39:22.768Z,11.93
2019-03-20T10:41:50.893Z,10.98
2019-03-20T10:44:18.896Z,10.60
2019-03-20T10:46:46.921Z,11.00
2019-03-20T10:49:14.942Z,13.55
2019-03-20T10:51:42.967Z,10.13
2019-03-20T10:54:10.980Z,9.90
2019-03-20T10:56:39.083Z,8.58
2019-03-20T10:59:07.104Z,9.25
2019-03-20T11:01:42.586Z,11.38
2019-03-20T11:04:04.967Z,10.30
2019-03-20T11:06:32.997Z,7.92
2019-03-20T11:09:01.030Z,8.48
2019-03-20T11:11:29.144Z,9.58
2019-03-20T11:13:57.172Z,7.87
2019-03-20T11:16:25.294Z,10.08
2019-03-20T11:18:53.323Z,7.90
2019-03-20T11:21:21.427Z,7.55
2019-03-20T11:23:49.465Z,8.08
2019-03-20T11:26:17.564Z,8.75
2019-03-20T11:28:45.595Z,10.13
2019-03-20T11:31:13.624Z,9.05
2019-03-20T11:33:43.347Z,7.08
2019-03-20T11:36:11.355Z,7.75
2019-03-20T11:38:39.395Z,7.33
2019-03-20T11:41:07.423Z,5.83
2019-03-20T11:43:35.481Z,8.43
2019-03-20T11:46:03.723Z,8.60
2019-03-20T11:48:33.448Z,8.63
2019-03-20T11:51:01.495Z,9.08
2019-03-20T11:53:29.518Z,6.45
2019-03-20T11:55:57.524Z,8.18
2019-03-20T11:58:25.664Z,6.17
2019-03-20T12:00:55.162Z,8.10
2019-03-20T12:03:23.169Z,7.45
2019-03-20T12:05:51.171Z,8.10
2019-03-20T12:08:19.213Z,7.83
2019-03-20T12:10:47.223Z,7.75
2019-03-20T12:13:15.310Z,6.08
2019-03-20T12:15:43.316Z,6.12
2019-03-20T12:18:11.376Z,5.90
2019-03-20T12:20:39.503Z,9.25
2019-03-20T12:23:07.668Z,7.97
2019-03-20T12:25:36.270Z,6.22
2019-03-20T12:28:04.425Z,5.55
2019-03-20T12:30:32.959Z,7.20
2019-03-20T12:33:00.999Z,5.92
2019-03-20T12:35:30.664Z,6.80
2019-03-20T12:37:58.674Z,6.80
2019-03-20T12:40:28.417Z,5.75
2019-03-20T12:42:56.635Z,6.37
2019-03-20T12:45:25.761Z,7.05
2019-03-20T12:47:53.775Z,6.00
2019-03-20T12:50:21.912Z,5.87
2019-03-20T12:52:49.946Z,5.78
2019-03-20T12:55:18.421Z,5.67
2019-03-20T12:57:46.436Z,5.58
2019-03-20T13:00:16.216Z,4.97
2019-03-20T13:02:44.242Z,5.22
2019-03-20T13:05:13.331Z,6.53
2019-03-20T13:07:41.354Z,6.25
2019-03-20T13:10:10.649Z,5.42
2019-03-20T13:12:38.753Z,5.95
2019-03-20T13:15:13.821Z,4.40
2019-03-20T13:17:41.866Z,6.08
2019-03-20T13:20:10.562Z,4.42
2019-03-20T13:22:38.672Z,4.97
2019-03-20T13:25:08.247Z,4.35
2019-03-20T13:27:40.191Z,5.03
2019-03-20T13:30:19.708Z,4.90
2019-03-20T13:32:39.596Z,3.87
2019-03-20T13:35:08.379Z,5.60
2019-03-20T13:37:36.412Z,4.47
2019-03-20T13:40:13.946Z,5.55
2019-03-20T13:42:35.878Z,5.60
2019-03-20T13:45:05.625Z,4.80
2019-03-20T13:47:33.651Z,3.42
2019-03-20T13:50:01.676Z,4.45
2019-03-20T13:52:29.725Z,6.47
2019-03-20T13:54:57.732Z,3.80
2019-03-20T13:57:25.779Z,3.85
2019-03-20T13:59:53.792Z,5.75
2019-03-20T14:02:21.862Z,3.83
2019-03-20T14:04:49.866Z,4.65
2019-03-20T14:07:17.979Z,4.50
2019-03-20T14:09:46.027Z,4.60
2019-03-20T14:12:14.092Z,3.77
2019-03-20T14:14:42.109Z,3.90
2019-03-20T14:17:10.126Z,5.70
2019-03-20T14:19:38.155Z,4.03
2019-03-20T14:22:06.204Z,4.30
2019-03-20T14:24:36.014Z,4.25
2019-03-20T14:27:04.128Z,3.98
2019-03-20T14:29:32.241Z,5.70
2019-03-20T14:32:00.270Z,5.30
2019-03-20T14:34:28.362Z,7.40
2019-03-20T14:36:56.435Z,6.67
2019-03-20T14:39:25.426Z,5.25
2019-03-20T14:41:53.497Z,4.95
2019-03-20T14:44:21.592Z,5.70
2019-03-20T14:46:49.608Z,5.17
2019-03-20T14:49:17.658Z,5.90
2019-03-20T14:51:45.671Z,8.15
2019-03-20T14:54:13.722Z,5.67
2019-03-20T14:56:41.743Z,6.80
2019-03-20T14:59:09.770Z,4.55
2019-03-20T15:01:37.808Z,3.33
2019-03-20T15:04:06.033Z,3.20
2019-03-20T15:06:34.060Z,5.22
2019-03-20T15:09:02.103Z,2.67
2019-03-20T15:11:30.235Z,3.50
2019-03-20T15:13:58.324Z,3.83
2019-03-20T15:16:26.355Z,5.00
2019-03-20T15:18:54.373Z,5.00
2019-03-20T15:21:22.395Z,3.77
2019-03-20T15:23:50.425Z,4.60
2019-03-20T15:26:18.509Z,3.80
2019-03-20T15:28:46.886Z,3.50
2019-03-20T15:31:14.914Z,3.33
2019-03-20T15:33:43.105Z,3.55
2019-03-20T15:36:11.131Z,2.40
2019-03-20T15:38:39.134Z,3.52
2019-03-20T15:41:07.176Z,3.80
2019-03-20T15:43:35.167Z,3.42
2019-03-20T15:46:03.191Z,2.37
2019-03-20T15:48:31.222Z,2.42
2019-03-20T15:50:59.256Z,3.40
2019-03-20T15:53:27.275Z,2.98
2019-03-20T15:55:55.399Z,2.60
2019-03-20T15:58:23.592Z,2.37
2019-03-20T16:00:51.639Z,3.47
2019-03-20T16:03:24.002Z,3.10
2019-03-20T16:05:52.095Z,2.17
2019-03-20T16:08:20.567Z,2.52
2019-03-20T16:10:48.583Z,3.70
2019-03-20T16:13:16.627Z,2.50
2019-03-20T16:15:44.646Z,2.27
2019-03-20T16:18:12.694Z,3.02
2019-03-20T16:20:40.742Z,2.12
2019-03-20T16:23:08.783Z,2.70
2019-03-20T16:25:36.992Z,3.62
2019-03-20T16:28:05.019Z,3.52
2019-03-20T16:30:33.055Z,4.40
2019-03-20T16:33:01.176Z,5.20
2019-03-20T16:35:29.263Z,7.83
2019-03-20T16:37:57.304Z,7.03
2019-03-20T16:40:28.912Z,10.95
2019-03-20T16:42:57.108Z,6.58
2019-03-20T16:45:26.303Z,8.33
2019-03-20T16:47:54.344Z,5.92
2019-03-20T16:50:22.396Z,6.45
2019-03-20T16:52:50.459Z,12.13
2019-03-20T16:55:18.715Z,10.25
2019-03-20T16:57:46.739Z,8.00
2019-03-20T17:00:27.729Z,9.10
2019-03-20T17:02:55.865Z,10.43
2019-03-20T17:05:24.094Z,7.35
2019-03-20T17:07:52.276Z,9.20
2019-03-20T17:10:24.874Z,8.13
2019-03-20T17:12:52.924Z,9.98
2019-03-20T17:15:22.031Z,8.60
2019-03-20T17:17:50.088Z,7.28
2019-03-20T17:20:18.120Z,7.65
2019-03-20T17:22:46.255Z,9.70
2019-03-20T17:25:14.323Z,7.17
2019-03-20T17:27:42.417Z,10.55
2019-03-20T17:30:12.079Z,11.08
2019-03-20T17:32:40.092Z,8.33
2019-03-20T17:35:09.171Z,7.70
2019-03-20T17:37:37.222Z,8.83
2019-03-20T17:40:06.931Z,10.90
2019-03-20T17:42:34.960Z,6.53
2019-03-20T17:45:03.819Z,6.28
2019-03-20T17:47:31.855Z,6.20
2019-03-20T17:49:59.929Z,7.97
2019-03-20T17:52:28.011Z,8.40
2019-03-20T17:54:56.059Z,7.17
2019-03-20T17:57:24.232Z,9.25
2019-03-20T17:59:52.249Z,4.87
2019-03-20T18:02:23.850Z,9.80
2019-03-20T18:04:50.187Z,6.50
2019-03-20T18:07:18.259Z,4.97
2019-03-20T18:09:46.275Z,7.35
2019-03-20T18:12:14.337Z,9.50
2019-03-20T18:14:42.527Z,8.63
2019-03-20T18:17:10.576Z,8.28
2019-03-20T18:19:38.722Z,9.58
2019-03-20T18:22:06.783Z,10.08
2019-03-20T18:24:34.800Z,5.58
2019-03-20T18:27:02.874Z,8.03
2019-03-20T18:29:30.894Z,8.20
2019-03-20T18:31:58.923Z,8.40
2019-03-20T18:34:26.961Z,7.45
2019-03-20T18:36:55.085Z,6.45
2019-03-20T18:39:23.326Z,6.15
2019-03-20T18:41:57.636Z,4.30
2019-03-20T18:44:21.094Z,6.28
2019-03-20T18:46:49.267Z,5.35
2019-03-20T18:49:17.343Z,6.28
2019-03-20T18:51:45.392Z,4.45
2019-03-20T18:54:13.423Z,5.72
2019-03-20T18:56:41.458Z,5.40
2019-03-20T18:59:09.516Z,5.70
2019-03-20T19:01:37.750Z,5.37
2019-03-20T19:04:05.998Z,6.67
2019-03-20T19:06:34.063Z,6.25
2019-03-20T19:09:02.104Z,6.15
2019-03-20T19:11:30.187Z,6.17
2019-03-20T19:13:58.235Z,8.98
2019-03-20T19:16:26.330Z,11.20
2019-03-20T19:18:54.379Z,4.55
2019-03-20T19:21:22.403Z,4.95
2019-03-20T19:23:50.469Z,6.92
2019-03-20T19:26:18.673Z,5.20
2019-03-20T19:28:46.708Z,6.40
2019-03-20T19:31:14.806Z,5.60
2019-03-20T19:33:42.827Z,5.83
2019-03-20T19:36:10.864Z,3.80
2019-03-20T19:38:38.884Z,6.08
2019-03-20T19:41:08.860Z,4.42
2019-03-20T19:43:36.779Z,4.85
2019-03-20T19:46:04.829Z,4.17
2019-03-20T19:48:32.963Z,5.67
2019-03-20T19:51:01.023Z,5.00
2019-03-20T19:53:29.060Z,7.75
2019-03-20T19:55:57.143Z,4.55
2019-03-20T19:58:25.182Z,6.08
2019-03-20T20:00:53.208Z,4.85
2019-03-20T20:03:21.372Z,5.67
2019-03-20T20:05:49.419Z,4.10
2019-03-20T20:08:17.490Z,4.72
2019-03-20T20:10:45.549Z,4.50
2019-03-20T20:13:13.713Z,5.15
2019-03-20T20:15:41.828Z,6.70
2019-03-20T20:18:09.869Z,4.22
2019-03-20T20:20:39.000Z,4.30
2019-03-20T20:23:07.029Z,5.22
2019-03-20T20:25:35.092Z,4.97
2019-03-20T20:28:03.104Z,3.85
2019-03-20T20:30:31.250Z,4.05
2019-03-20T20:32:59.301Z,4.87
2019-03-20T20:35:27.373Z,5.42
2019-03-20T20:37:55.423Z,4.70
2019-03-20T20:40:24.196Z,4.20
2019-03-20T20:42:52.327Z,4.10
2019-03-20T20:45:20.388Z,4.95
2019-03-20T20:47:48.430Z,4.37
2019-03-20T20:50:16.835Z,3.60
2019-03-20T20:52:45.220Z,4.97
2019-03-20T20:55:20.186Z,4.85
2019-03-20T20:57:48.261Z,4.90
2019-03-20T21:00:17.327Z,3.10
2019-03-20T21:02:45.505Z,3.37
2019-03-20T21:05:13.521Z,3.45
2019-03-20T21:07:41.565Z,2.70
2019-03-20T21:10:10.967Z,3.55
2019-03-20T21:12:39.075Z,3.62
2019-03-20T21:15:08.756Z,3.77
2019-03-20T21:17:38.423Z,3.72
2019-03-20T21:20:06.724Z,3.12
2019-03-20T21:22:36.395Z,3.75
2019-03-20T21:25:04.775Z,3.62
2019-03-20T21:27:51.008Z,4.00
2019-03-20T21:30:23.520Z,5.87
2019-03-20T21:32:53.183Z,3.15
2019-03-20T21:35:25.540Z,6.62
2019-03-20T21:38:06.580Z,6.67
2019-03-20T21:40:54.482Z,4.20
2019-03-20T21:43:39.322Z,4.78
2019-03-20T21:46:25.799Z,5.92
2019-03-20T21:48:53.898Z,3.67
2019-03-20T21:51:21.960Z,4.58
2019-03-20T21:53:51.624Z,5.05
2019-03-20T21:56:24.198Z,3.10
2019-03-20T21:58:53.934Z,3.77
2019-03-20T22:01:23.593Z,3.75
2019-03-20T22:03:51.610Z,4.15
2019-03-20T22:06:33.335Z,3.67
2019-03-20T22:09:01.923Z,2.83
2019-03-20T22:11:31.681Z,4.12
2019-03-20T22:14:04.285Z,3.05
2019-03-20T22:16:50.584Z,3.77
2019-03-20T22:19:29.400Z,3.80
2019-03-20T22:22:02.092Z,4.67
2019-03-20T22:24:31.763Z,3.12
2019-03-20T22:27:04.218Z,3.55
2019-03-20T22:29:32.271Z,5.60
2019-03-20T22:32:02.010Z,3.37
2019-03-20T22:34:37.781Z,3.65
2019-03-20T22:37:05.988Z,2.83
2019-03-20T22:39:52.333Z,2.98
2019-03-20T22:42:21.986Z,2.98
2019-03-20T22:44:57.894Z,2.65
2019-03-20T22:47:44.277Z,4.10
2019-03-20T22:50:19.992Z,3.45
2019-03-20T22:53:08.087Z,3.90
2019-03-20T22:55:40.709Z,2.80
2019-03-20T22:58:16.419Z,2.77
2019-03-20T23:00:45.887Z,3.02
2019-03-20T23:03:21.355Z,2.60
2019-03-20T23:05:49.377Z,3.00
2019-03-20T23:08:17.575Z,3.85
2019-03-20T23:10:47.082Z,2.47
2019-03-20T23:13:19.286Z,2.65
2019-03-20T23:15:44.864Z,2.37
2019-03-20T23:18:12.950Z,3.08
2019-03-20T23:20:40.952Z,2.58
2019-03-20T23:23:08.983Z,3.02
2019-03-20T23:25:37.061Z,3.45
2019-03-20T23:28:05.084Z,2.85
2019-03-20T23:30:33.779Z,2.70
2019-03-20T23:33:01.810Z,2.47
2019-03-20T23:35:29.832Z,2.98
2019-03-20T23:37:57.899Z,4.75
2019-03-20T23:40:26.045Z,4.35
2019-03-20T23:42:55.394Z,2.95
2019-03-20T23:45:23.411Z,5.75
2019-03-20T23:47:53.234Z,3.20
2019-03-20T23:50:21.269Z,3.05
2019-03-20T23:52:49.362Z,2.30
2019-03-20T23:55:17.519Z,3.77
2019-03-20T23:57:45.534Z,2.83
